createdAt,value
2017-12-02T00:01:38.471Z,82.22
2017-12-02T00:04:05.892Z,82.23
2017-12-02T00:06:33.335Z,82.59
2017-12-02T00:09:00.732Z,82.74
2017-12-02T00:11:28.122Z,82.63
2017-12-02T00:13:55.526Z,82.23
2017-12-02T00:16:22.923Z,82.60
2017-12-02T00:18:50.322Z,83.89
2017-12-02T00:21:17.767Z,84.49
2017-12-02T00:23:45.163Z,84.56
2017-12-02T00:26:12.666Z,85.04
2017-12-02T00:28:40.054Z,84.37
2017-12-02T00:31:07.448Z,83.61
2017-12-02T00:33:34.863Z,83.79
2017-12-02T00:36:02.294Z,84.06
2017-12-02T00:38:29.755Z,84.31
2017-12-02T00:40:57.201Z,84.42
2017-12-02T00:43:24.593Z,84.55
2017-12-02T00:45:52.022Z,84.37
2017-12-02T00:48:19.405Z,83.89
2017-12-02T00:50:46.811Z,83.99
2017-12-02T00:53:14.301Z,84.22
2017-12-02T00:55:41.699Z,83.71
2017-12-02T00:58:09.223Z,83.69
2017-12-02T01:00:36.623Z,84.42
2017-12-02T01:03:04.025Z,84.67
2017-12-02T01:05:31.414Z,84.18
2017-12-02T01:07:58.815Z,84.03
2017-12-02T01:10:26.210Z,83.93
2017-12-02T01:12:53.630Z,84.45
2017-12-02T01:15:21.019Z,84.60
2017-12-02T01:17:48.423Z,84.70
2017-12-02T01:20:15.810Z,84.59
2017-12-02T01:22:43.298Z,84.91
2017-12-02T01:25:10.690Z,84.57
2017-12-02T01:27:38.110Z,84.26
2017-12-02T01:30:05.502Z,83.89
2017-12-02T01:32:32.903Z,84.11
2017-12-02T01:35:00.378Z,84.74
2017-12-02T01:37:27.839Z,84.13
2017-12-02T01:39:55.287Z,84.08
2017-12-02T01:42:22.678Z,84.17
2017-12-02T01:44:50.099Z,84.35
2017-12-02T01:47:17.499Z,83.94
2017-12-02T01:49:44.898Z,83.50
2017-12-02T01:52:12.362Z,83.65
2017-12-02T01:54:39.750Z,83.08
2017-12-02T01:57:07.194Z,83.07
2017-12-02T01:59:34.632Z,82.81
2017-12-02T02:02:02.043Z,83.62
2017-12-02T02:04:29.542Z,83.40
2017-12-02T02:06:56.971Z,83.32
2017-12-02T02:09:24.370Z,82.75
2017-12-02T02:11:51.779Z,82.38
2017-12-02T02:14:19.267Z,81.27
2017-12-02T02:16:46.720Z,79.96
2017-12-02T02:19:14.128Z,78.93
2017-12-02T02:21:41.532Z,77.98
2017-12-02T02:24:08.990Z,77.07
2017-12-02T02:26:36.389Z,76.47
2017-12-02T02:29:03.801Z,76.35
2017-12-02T02:31:31.251Z,76.01
2017-12-02T02:33:58.727Z,75.63
2017-12-02T02:36:26.098Z,75.64
2017-12-02T02:38:59.358Z,76.04
2017-12-02T02:41:26.742Z,75.83
2017-12-02T02:43:54.169Z,75.67
2017-12-02T02:46:21.552Z,75.81
2017-12-02T02:48:48.966Z,76.01
2017-12-02T02:51:16.354Z,75.96
2017-12-02T02:53:43.759Z,75.69
2017-12-02T02:56:11.143Z,75.31
2017-12-02T02:58:38.590Z,75.12
2017-12-02T03:01:06.057Z,75.05
2017-12-02T03:03:33.454Z,75.23
2017-12-02T03:06:00.842Z,75.23
2017-12-02T03:08:28.318Z,75.37
2017-12-02T03:10:55.790Z,75.53
2017-12-02T03:13:23.231Z,75.67
2017-12-02T03:15:50.631Z,75.74
2017-12-02T03:18:18.053Z,76.19
2017-12-02T03:20:45.493Z,76.21
2017-12-02T03:23:12.882Z,76.43
2017-12-02T03:25:40.290Z,77.03
2017-12-02T03:28:08.487Z,76.72
2017-12-02T03:30:35.883Z,76.54
2017-12-02T03:33:03.270Z,76.60
2017-12-02T03:35:30.770Z,76.63
2017-12-02T03:37:58.164Z,77.04
2017-12-02T03:40:25.571Z,76.83
2017-12-02T03:42:52.960Z,76.73
2017-12-02T03:45:20.470Z,76.76
2017-12-02T03:47:47.854Z,76.76
2017-12-02T03:50:15.263Z,76.88
2017-12-02T03:52:42.642Z,77.00
2017-12-02T03:55:10.051Z,77.14
2017-12-02T03:57:37.454Z,77.24
2017-12-02T04:00:04.854Z,77.53
2017-12-02T04:02:32.246Z,77.80
2017-12-02T04:04:59.652Z,77.84
2017-12-02T04:07:27.070Z,77.77
2017-12-02T04:09:54.470Z,77.69
2017-12-02T04:12:21.861Z,77.88
2017-12-02T04:14:49.611Z,79.12
2017-12-02T04:17:16.992Z,80.23
2017-12-02T04:19:44.386Z,80.89
2017-12-02T04:22:11.806Z,80.93
2017-12-02T04:24:39.205Z,80.98
2017-12-02T04:27:06.602Z,81.48
2017-12-02T04:29:34.002Z,82.27
2017-12-02T04:32:01.423Z,82.74
2017-12-02T04:34:28.815Z,84.20
2017-12-02T04:36:56.258Z,83.44
2017-12-02T04:39:23.690Z,82.43
2017-12-02T04:41:51.153Z,81.47
2017-12-02T04:44:18.608Z,81.07
2017-12-02T04:46:46.022Z,80.70
2017-12-02T04:49:13.515Z,80.24
2017-12-02T04:51:40.982Z,79.79
2017-12-02T04:54:08.442Z,79.65
2017-12-02T04:56:35.826Z,80.16
2017-12-02T04:59:03.226Z,81.07
2017-12-02T05:01:30.698Z,81.10
2017-12-02T05:03:58.099Z,80.75
2017-12-02T05:06:25.489Z,80.77
2017-12-02T05:08:52.885Z,80.47
2017-12-02T05:11:20.371Z,80.50
2017-12-02T05:13:47.822Z,80.49
2017-12-02T05:16:15.294Z,80.35
2017-12-02T05:18:42.744Z,80.67
2017-12-02T05:21:10.143Z,80.94
2017-12-02T05:23:37.554Z,80.71
2017-12-02T05:26:04.961Z,82.19
2017-12-02T05:28:32.383Z,81.74
2017-12-02T05:30:59.811Z,81.72
2017-12-02T05:33:27.212Z,81.15
2017-12-02T05:35:54.613Z,80.63
2017-12-02T05:38:22.073Z,80.34
2017-12-02T05:40:49.483Z,80.15
2017-12-02T05:43:16.874Z,80.46
2017-12-02T05:45:44.272Z,80.62
2017-12-02T05:48:11.666Z,80.49
2017-12-02T05:50:39.055Z,80.11
2017-12-02T05:53:06.573Z,79.72
2017-12-02T05:55:34.070Z,80.50
2017-12-02T05:58:01.478Z,80.40
2017-12-02T06:00:28.886Z,80.00
2017-12-02T06:02:56.339Z,80.20
2017-12-02T06:05:23.734Z,79.89
2017-12-02T06:07:51.122Z,79.61
2017-12-02T06:10:18.523Z,80.08
2017-12-02T06:12:45.938Z,79.94
2017-12-02T06:15:13.412Z,79.96
2017-12-02T06:17:40.802Z,80.67
2017-12-02T06:20:08.216Z,80.09
2017-12-02T06:22:35.631Z,79.71
2017-12-02T06:25:03.018Z,79.59
2017-12-02T06:27:30.421Z,79.78
2017-12-02T06:29:57.847Z,80.43
2017-12-02T06:32:25.270Z,79.88
2017-12-02T06:34:52.671Z,80.50
2017-12-02T06:37:20.119Z,80.59
2017-12-02T06:39:47.502Z,79.90
2017-12-02T06:42:14.917Z,79.70
2017-12-02T06:44:42.375Z,80.22
2017-12-02T06:47:09.782Z,79.87
2017-12-02T06:49:37.188Z,79.79
2017-12-02T06:52:04.586Z,80.00
2017-12-02T06:54:32.002Z,79.42
2017-12-02T06:56:59.414Z,80.07
2017-12-02T06:59:26.819Z,79.54
2017-12-02T07:01:54.214Z,79.42
2017-12-02T07:04:21.633Z,78.78
2017-12-02T07:06:49.026Z,78.29
2017-12-02T07:09:16.430Z,77.98
2017-12-02T07:11:43.818Z,77.66
2017-12-02T07:14:11.222Z,77.48
2017-12-02T07:16:38.611Z,77.25
2017-12-02T07:19:06.010Z,77.27
2017-12-02T07:21:33.398Z,77.88
2017-12-02T07:24:00.807Z,78.06
2017-12-02T07:26:28.202Z,77.82
2017-12-02T07:28:55.594Z,77.99
2017-12-02T07:31:22.989Z,78.20
2017-12-02T07:33:50.402Z,78.70
2017-12-02T07:36:17.796Z,78.55
2017-12-02T07:38:45.199Z,79.14
2017-12-02T07:41:12.586Z,79.12
2017-12-02T07:43:40.058Z,78.79
2017-12-02T07:46:07.462Z,78.60
2017-12-02T07:48:34.858Z,80.67
2017-12-02T07:51:02.279Z,80.23
2017-12-02T07:53:29.692Z,80.24
2017-12-02T07:55:57.162Z,79.79
2017-12-02T07:58:24.554Z,78.73
2017-12-02T08:00:51.951Z,79.40
2017-12-02T08:03:19.359Z,79.41
2017-12-02T08:05:46.786Z,79.00
2017-12-02T08:08:14.174Z,78.98
2017-12-02T08:10:41.675Z,79.43
2017-12-02T08:13:09.176Z,79.88
2017-12-02T08:15:36.562Z,79.69
2017-12-02T08:18:03.958Z,80.44
2017-12-02T08:20:31.376Z,80.08
2017-12-02T08:22:58.775Z,80.74
2017-12-02T08:25:26.246Z,81.00
2017-12-02T08:27:53.681Z,80.06
2017-12-02T08:30:21.122Z,80.01
2017-12-02T08:32:48.591Z,79.83
2017-12-02T08:35:15.970Z,79.71
2017-12-02T08:37:43.378Z,80.57
2017-12-02T08:40:10.847Z,80.67
2017-12-02T08:42:38.242Z,81.00
2017-12-02T08:45:05.639Z,81.09
2017-12-02T08:47:33.110Z,80.21
2017-12-02T08:50:00.525Z,80.13
2017-12-02T08:52:27.920Z,79.56
2017-12-02T08:54:55.307Z,79.30
2017-12-02T08:57:22.733Z,78.46
2017-12-02T08:59:50.126Z,77.95
2017-12-02T09:02:17.526Z,78.01
2017-12-02T09:04:44.938Z,78.20
2017-12-02T09:07:12.352Z,78.67
2017-12-02T09:09:39.747Z,78.62
2017-12-02T09:12:07.154Z,78.28
2017-12-02T09:14:34.552Z,78.60
2017-12-02T09:17:01.950Z,78.61
2017-12-02T09:19:29.343Z,79.66
2017-12-02T09:21:56.755Z,79.24
2017-12-02T09:24:24.153Z,78.77
2017-12-02T09:26:51.542Z,77.98
2017-12-02T09:29:18.937Z,76.83
2017-12-02T09:31:46.358Z,76.64
2017-12-02T09:34:13.757Z,76.98
2017-12-02T09:36:41.158Z,76.15
2017-12-02T09:39:08.558Z,76.05
2017-12-02T09:41:36.043Z,75.77
2017-12-02T09:44:03.439Z,75.75
2017-12-02T09:46:30.830Z,74.84
2017-12-02T09:48:58.311Z,75.78
2017-12-02T09:51:25.743Z,76.03
2017-12-02T09:53:53.107Z,76.24
2017-12-02T09:56:20.498Z,76.14
2017-12-02T09:58:47.935Z,76.16
2017-12-02T10:01:15.383Z,75.86
2017-12-02T10:03:42.775Z,76.87
2017-12-02T10:06:10.193Z,76.44
2017-12-02T10:08:37.646Z,76.57
2017-12-02T10:11:05.051Z,76.59
2017-12-02T10:13:32.462Z,77.62
2017-12-02T10:15:59.917Z,77.75
2017-12-02T10:18:27.307Z,77.73
2017-12-02T10:23:21.389Z,79.31
2017-12-02T10:25:48.810Z,79.56
2017-12-02T10:28:16.194Z,79.60
2017-12-02T10:30:43.582Z,80.24
2017-12-02T10:33:10.986Z,80.72
2017-12-02T10:35:38.385Z,80.44
2017-12-02T10:38:05.769Z,79.59
2017-12-02T10:40:33.222Z,79.83
2017-12-02T10:43:00.716Z,79.66
2017-12-02T10:45:28.098Z,78.99
2017-12-02T10:47:55.510Z,79.42
2017-12-02T10:50:22.894Z,79.69
2017-12-02T10:52:50.304Z,79.43
2017-12-02T10:55:17.683Z,78.83
2017-12-02T10:57:45.079Z,78.35
2017-12-02T11:00:12.478Z,77.93
2017-12-02T11:02:39.887Z,78.04
2017-12-02T11:05:07.310Z,78.56
2017-12-02T11:07:34.723Z,78.70
2017-12-02T11:10:02.220Z,78.83
2017-12-02T11:12:29.666Z,77.86
2017-12-02T11:14:57.054Z,77.92
2017-12-02T11:17:24.455Z,78.34
2017-12-02T11:19:51.944Z,77.74
2017-12-02T11:22:19.344Z,77.68
2017-12-02T11:24:46.850Z,77.72
2017-12-02T11:27:14.255Z,77.59
2017-12-02T11:29:41.678Z,76.70
2017-12-02T11:32:09.120Z,76.33
2017-12-02T11:34:36.506Z,76.45
2017-12-02T11:37:03.897Z,76.50
2017-12-02T11:39:31.298Z,77.41
2017-12-02T11:41:58.733Z,77.09
2017-12-02T11:44:26.132Z,76.20
2017-12-02T11:46:53.551Z,76.04
2017-12-02T11:49:21.007Z,76.46
2017-12-02T11:51:48.467Z,75.82
2017-12-02T11:54:15.917Z,75.28
2017-12-02T11:56:43.307Z,75.66
2017-12-02T11:59:10.706Z,75.82
2017-12-02T12:01:38.102Z,75.82
2017-12-02T12:04:05.505Z,76.69
2017-12-02T12:06:32.894Z,76.54
2017-12-02T12:09:00.343Z,76.17
2017-12-02T12:11:27.747Z,76.30
2017-12-02T12:13:55.142Z,76.92
2017-12-02T12:16:22.533Z,77.22
2017-12-02T12:18:49.938Z,77.78
2017-12-02T12:21:17.417Z,77.39
2017-12-02T12:23:44.823Z,76.71
2017-12-02T12:26:12.227Z,77.67
2017-12-02T12:28:39.627Z,77.42
2017-12-02T12:31:07.022Z,76.98
2017-12-02T12:33:34.422Z,76.98
2017-12-02T12:36:01.820Z,76.61
2017-12-02T12:38:29.210Z,77.42
2017-12-02T12:40:56.618Z,77.53
2017-12-02T12:43:24.011Z,77.37
2017-12-02T12:45:51.424Z,77.20
2017-12-02T12:48:18.821Z,77.18
2017-12-02T12:50:46.241Z,77.48
2017-12-02T12:53:13.631Z,77.17
2017-12-02T12:55:41.035Z,76.53
2017-12-02T12:58:08.434Z,76.69
2017-12-02T13:00:35.823Z,77.59
2017-12-02T13:03:03.278Z,77.72
2017-12-02T13:05:30.678Z,78.58
2017-12-02T13:07:58.150Z,78.75
2017-12-02T13:10:25.554Z,78.18
2017-12-02T13:12:52.953Z,78.19
2017-12-02T13:15:20.345Z,78.29
2017-12-02T13:17:47.766Z,77.55
2017-12-02T13:20:15.150Z,77.13
2017-12-02T13:22:42.638Z,78.12
2017-12-02T13:25:10.034Z,78.37
2017-12-02T13:27:37.435Z,78.07
2017-12-02T13:30:04.838Z,77.53
2017-12-02T13:32:32.234Z,76.98
2017-12-02T13:34:59.617Z,76.72
2017-12-02T13:37:27.026Z,76.59
2017-12-02T13:39:55.337Z,76.31
2017-12-02T13:42:22.802Z,75.85
2017-12-02T13:44:50.199Z,74.74
2017-12-02T13:47:17.598Z,74.78
2017-12-02T13:49:45.053Z,73.82
2017-12-02T13:52:12.401Z,73.95
2017-12-02T13:54:39.790Z,73.72
2017-12-02T13:57:07.202Z,73.97
2017-12-02T13:59:34.695Z,73.76
2017-12-02T14:02:02.149Z,73.29
2017-12-02T14:04:29.598Z,73.72
2017-12-02T14:06:56.989Z,73.62
2017-12-02T14:09:24.406Z,74.65
2017-12-02T14:11:51.802Z,75.29
2017-12-02T14:14:19.196Z,75.78
2017-12-02T14:16:46.682Z,76.21
2017-12-02T14:19:14.079Z,77.00
2017-12-02T14:21:41.469Z,77.31
2017-12-02T14:24:08.875Z,77.36
2017-12-02T14:26:36.266Z,76.89
2017-12-02T14:29:03.746Z,76.64
2017-12-02T14:31:31.213Z,76.43
2017-12-02T14:33:58.616Z,76.35
2017-12-02T14:36:26.010Z,76.47
2017-12-02T14:38:53.411Z,76.93
2017-12-02T14:41:20.835Z,76.63
2017-12-02T14:43:48.292Z,76.09
2017-12-02T14:46:15.744Z,75.61
2017-12-02T14:48:43.134Z,75.58
2017-12-02T14:51:10.533Z,75.83
2017-12-02T14:53:37.918Z,76.11
2017-12-02T14:56:05.374Z,76.00
2017-12-02T14:58:32.762Z,76.70
2017-12-02T15:01:00.182Z,75.98
2017-12-02T15:03:27.578Z,75.95
2017-12-02T15:05:55.089Z,77.01
2017-12-02T15:08:22.506Z,78.12
2017-12-02T15:10:49.898Z,78.59
2017-12-02T15:13:17.361Z,78.09
2017-12-02T15:15:44.772Z,77.96
2017-12-02T15:18:12.183Z,77.99
2017-12-02T15:20:39.630Z,77.97
2017-12-02T15:23:06.984Z,78.26
2017-12-02T15:25:34.421Z,78.02
2017-12-02T15:28:01.822Z,77.82
2017-12-02T15:30:29.245Z,77.89
2017-12-02T15:32:56.634Z,78.35
2017-12-02T15:35:24.062Z,78.75
2017-12-02T15:37:51.458Z,77.61
2017-12-02T15:40:18.845Z,77.29
2017-12-02T15:42:46.314Z,77.65
2017-12-02T15:45:13.781Z,77.53
2017-12-02T15:47:41.239Z,78.34
2017-12-02T15:50:08.694Z,79.23
2017-12-02T15:52:36.102Z,78.85
2017-12-02T15:55:03.502Z,78.60
2017-12-02T15:57:30.958Z,78.25
2017-12-02T15:59:58.421Z,77.87
2017-12-02T16:02:25.876Z,77.36
2017-12-02T16:04:53.325Z,76.69
2017-12-02T16:07:20.714Z,77.59
2017-12-02T16:09:48.115Z,77.43
2017-12-02T16:12:15.507Z,77.57
2017-12-02T16:14:42.889Z,77.33
2017-12-02T16:17:10.295Z,76.86
2017-12-02T16:19:37.766Z,77.05
2017-12-02T16:22:05.162Z,77.99
2017-12-02T16:24:32.568Z,77.50
2017-12-02T16:26:59.949Z,78.38
2017-12-02T16:29:27.354Z,78.27
2017-12-02T16:31:54.748Z,79.42
2017-12-02T16:34:22.202Z,79.87
2017-12-02T16:36:49.600Z,79.32
2017-12-02T16:39:17.037Z,78.85
2017-12-02T16:41:44.437Z,80.24
2017-12-02T16:44:11.850Z,80.56
2017-12-02T16:46:39.249Z,80.25
2017-12-02T16:49:06.630Z,80.25
2017-12-02T16:51:34.090Z,80.15
2017-12-02T16:54:01.494Z,79.33
2017-12-02T16:56:28.878Z,78.72
2017-12-02T16:58:56.294Z,78.59
2017-12-02T17:01:23.690Z,79.37
2017-12-02T17:03:51.086Z,79.41
2017-12-02T17:06:18.518Z,79.37
2017-12-02T17:08:45.906Z,79.35
2017-12-02T17:11:13.331Z,79.46
2017-12-02T17:13:40.778Z,79.17
2017-12-02T17:16:08.174Z,79.87
2017-12-02T17:18:35.565Z,79.33
2017-12-02T17:21:03.050Z,78.98
2017-12-02T17:23:30.442Z,79.14
2017-12-02T17:25:57.854Z,78.81
2017-12-02T17:28:25.318Z,78.33
2017-12-02T17:30:52.774Z,78.15
2017-12-02T17:33:20.167Z,77.99
2017-12-02T17:35:47.591Z,77.81
2017-12-02T17:38:14.970Z,79.02
2017-12-02T17:40:42.374Z,79.36
2017-12-02T17:43:09.842Z,79.69
2017-12-02T17:45:37.306Z,80.40
2017-12-02T17:48:04.758Z,80.37
2017-12-02T17:50:32.222Z,79.94
2017-12-02T17:52:59.633Z,79.89
2017-12-02T17:55:27.136Z,80.29
2017-12-02T17:57:54.535Z,79.81
2017-12-02T18:00:21.946Z,79.52
2017-12-02T18:02:49.395Z,78.86
2017-12-02T18:05:16.787Z,78.92
2017-12-02T18:07:44.182Z,79.39
2017-12-02T18:10:11.594Z,80.24
2017-12-02T18:12:38.989Z,79.52
2017-12-02T18:15:06.474Z,79.67
2017-12-02T18:17:33.890Z,79.16
2017-12-02T18:20:01.378Z,80.09
2017-12-02T18:22:28.786Z,81.04
2017-12-02T18:24:56.173Z,80.80
2017-12-02T18:27:23.571Z,80.62
2017-12-02T18:29:51.010Z,81.06
2017-12-02T18:32:18.466Z,80.85
2017-12-02T18:34:45.862Z,80.84
2017-12-02T18:37:13.254Z,81.10
2017-12-02T18:39:40.730Z,81.49
2017-12-02T18:42:08.118Z,81.36
2017-12-02T18:44:35.544Z,80.58
2017-12-02T18:47:02.930Z,80.64
2017-12-02T18:49:30.313Z,80.06
2017-12-02T18:51:57.717Z,79.45
2017-12-02T18:54:25.111Z,79.44
2017-12-02T18:56:52.498Z,79.07
2017-12-02T18:59:19.970Z,79.46
2017-12-02T19:01:47.384Z,79.83
2017-12-02T19:04:14.783Z,79.90
2017-12-02T19:06:42.174Z,80.05
2017-12-02T19:09:09.570Z,79.91
2017-12-02T19:11:36.957Z,79.78
2017-12-02T19:14:04.404Z,79.72
2017-12-02T19:16:31.810Z,79.93
2017-12-02T19:18:59.209Z,80.32
2017-12-02T19:21:26.682Z,79.91
2017-12-02T19:23:54.109Z,79.64
2017-12-02T19:26:21.505Z,78.96
2017-12-02T19:28:48.923Z,79.32
2017-12-02T19:31:16.306Z,79.30
2017-12-02T19:33:43.748Z,80.10
2017-12-02T19:36:11.217Z,79.69
2017-12-02T19:38:38.606Z,79.03
2017-12-02T19:41:06.013Z,79.38
2017-12-02T19:43:33.402Z,79.83
2017-12-02T19:46:00.843Z,80.15
2017-12-02T19:48:28.230Z,79.45
2017-12-02T19:50:55.639Z,79.24
2017-12-02T19:53:23.026Z,79.29
2017-12-02T19:55:50.438Z,79.93
2017-12-02T19:58:17.842Z,79.81
2017-12-02T20:00:45.235Z,79.50
2017-12-02T20:03:12.642Z,80.11
2017-12-02T20:05:40.078Z,80.70
2017-12-02T20:08:07.539Z,80.73
2017-12-02T20:10:34.948Z,80.48
2017-12-02T20:13:02.334Z,80.51
2017-12-02T20:15:29.802Z,79.96
2017-12-02T20:17:57.204Z,80.11
2017-12-02T20:20:24.611Z,80.12
2017-12-02T20:22:52.083Z,79.79
2017-12-02T20:28:10.083Z,80.59
2017-12-02T20:30:37.478Z,80.58
2017-12-02T20:33:04.862Z,80.28
2017-12-02T20:35:32.282Z,80.64
2017-12-02T20:37:59.672Z,80.66
2017-12-02T20:40:27.062Z,80.76
2017-12-02T20:42:54.449Z,80.99
2017-12-02T20:45:21.903Z,80.42
2017-12-02T20:47:49.304Z,80.04
2017-12-02T20:50:16.780Z,80.07
2017-12-02T20:52:44.161Z,80.29
2017-12-02T20:55:11.579Z,80.48
2017-12-02T20:57:38.982Z,80.42
2017-12-02T21:00:06.382Z,80.19
2017-12-02T21:02:33.775Z,80.63
2017-12-02T21:05:01.168Z,81.03
2017-12-02T21:07:28.670Z,81.58
2017-12-02T21:09:56.062Z,81.76
2017-12-02T21:12:23.481Z,81.63
2017-12-02T21:14:50.865Z,81.78
2017-12-02T21:17:18.262Z,81.94
2017-12-02T21:19:45.651Z,81.05
2017-12-02T21:22:13.062Z,80.57
2017-12-02T21:24:40.558Z,80.58
2017-12-02T21:27:07.953Z,80.68
2017-12-02T21:29:35.337Z,81.04
2017-12-02T21:32:02.736Z,80.64
2017-12-02T21:34:30.127Z,80.47
2017-12-02T21:36:57.644Z,80.59
2017-12-02T21:39:25.033Z,80.86
2017-12-02T21:41:52.429Z,81.07
2017-12-02T21:44:19.826Z,80.95
2017-12-02T21:46:47.325Z,81.21
2017-12-02T21:49:14.772Z,80.58
2017-12-02T21:51:42.230Z,80.07
2017-12-02T21:54:09.626Z,80.60
2017-12-02T21:56:37.011Z,80.29
2017-12-02T21:59:04.407Z,80.70
2017-12-02T22:01:31.822Z,81.30
2017-12-02T22:03:59.226Z,81.23
2017-12-02T22:06:26.627Z,81.96
2017-12-02T22:08:54.109Z,81.61
2017-12-02T22:11:21.502Z,80.84
2017-12-02T22:13:48.894Z,80.88
2017-12-02T22:16:16.294Z,81.02
2017-12-02T22:18:43.686Z,81.58
2017-12-02T22:21:11.082Z,81.32
2017-12-02T22:23:38.475Z,81.27
2017-12-02T22:26:05.866Z,81.40
2017-12-02T22:28:33.253Z,81.24
2017-12-02T22:31:00.649Z,81.03
2017-12-02T22:33:28.042Z,81.90
2017-12-02T22:35:55.517Z,81.42
2017-12-02T22:38:22.980Z,81.14
2017-12-02T22:40:50.374Z,81.30
2017-12-02T22:43:17.771Z,81.75
2017-12-02T22:45:45.170Z,82.32
2017-12-02T22:48:12.571Z,81.69
2017-12-02T22:50:40.055Z,81.40
2017-12-02T22:53:07.502Z,81.49
2017-12-02T22:55:34.895Z,82.01
2017-12-02T22:58:02.327Z,81.99
2017-12-02T23:00:29.721Z,81.86
2017-12-02T23:02:57.110Z,81.88
2017-12-02T23:08:14.672Z,81.54
2017-12-02T23:10:42.084Z,81.31
2017-12-02T23:13:09.513Z,82.01
2017-12-02T23:15:36.918Z,81.70
2017-12-02T23:18:04.318Z,81.78
2017-12-02T23:20:31.718Z,82.13
2017-12-02T23:22:59.125Z,82.33
2017-12-02T23:25:26.600Z,82.62
2017-12-02T23:27:53.985Z,82.62
2017-12-02T23:30:21.566Z,82.45
2017-12-02T23:32:48.979Z,82.59
2017-12-02T23:35:16.487Z,82.63
2017-12-02T23:37:44.018Z,82.71
2017-12-02T23:40:11.644Z,83.50
2017-12-02T23:42:39.253Z,83.71
2017-12-02T23:45:06.654Z,83.64
2017-12-02T23:47:34.056Z,83.18
2017-12-02T23:50:01.460Z,83.29
2017-12-02T23:52:28.919Z,83.86
2017-12-02T23:54:56.305Z,83.22
2017-12-02T23:57:23.726Z,83.53
2017-12-02T23:59:51.118Z,83.81
